sensor_id;sensor_type;location;lat;lon;timestamp;temperature;humidity
64705;DHT22;51131;52.298;13.686;2022-12-17T00:01:52;15.00;39.60
64705;DHT22;51131;52.298;13.686;2022-12-17T00:04:37;15.00;39.10
64705;DHT22;51131;52.298;13.686;2022-12-17T00:07:22;15.10;40.10
64705;DHT22;51131;52.298;13.686;2022-12-17T00:10:07;15.00;40.30
64705;DHT22;51131;52.298;13.686;2022-12-17T00:12:52;15.00;40.30
64705;DHT22;51131;52.298;13.686;2022-12-17T00:15:38;14.90;38.80
64705;DHT22;51131;52.298;13.686;2022-12-17T00:18:23;15.00;39.10
64705;DHT22;51131;52.298;13.686;2022-12-17T00:21:08;15.20;39.60
64705;DHT22;51131;52.298;13.686;2022-12-17T00:23:53;14.90;40.20
64705;DHT22;51131;52.298;13.686;2022-12-17T00:26:38;15.00;39.10
64705;DHT22;51131;52.298;13.686;2022-12-17T00:29:23;14.90;38.90
64705;DHT22;51131;52.298;13.686;2022-12-17T00:32:08;15.00;39.80
64705;DHT22;51131;52.298;13.686;2022-12-17T00:34:53;15.20;40.20
64705;DHT22;51131;52.298;13.686;2022-12-17T00:37:38;14.90;39.30
64705;DHT22;51131;52.298;13.686;2022-12-17T00:40:24;14.90;38.80
64705;DHT22;51131;52.298;13.686;2022-12-17T00:43:10;15.00;39.30
64705;DHT22;51131;52.298;13.686;2022-12-17T00:45:55;15.00;40.20
64705;DHT22;51131;52.298;13.686;2022-12-17T00:48:40;14.90;40.40
64705;DHT22;51131;52.298;13.686;2022-12-17T00:51:25;14.90;38.80
64705;DHT22;51131;52.298;13.686;2022-12-17T00:54:11;15.00;39.00
64705;DHT22;51131;52.298;13.686;2022-12-17T00:56:56;15.00;39.90
64705;DHT22;51131;52.298;13.686;2022-12-17T00:59:41;15.00;40.10
64705;DHT22;51131;52.298;13.686;2022-12-17T01:02:26;14.90;39.00
64705;DHT22;51131;52.298;13.686;2022-12-17T01:05:12;15.00;39.10
64705;DHT22;51131;52.298;13.686;2022-12-17T01:08:05;15.00;40.30
64705;DHT22;51131;52.298;13.686;2022-12-17T01:11:04;14.90;39.70
64705;DHT22;51131;52.298;13.686;2022-12-17T01:13:49;14.90;38.70
64705;DHT22;51131;52.298;13.686;2022-12-17T01:16:34;14.90;38.70
64705;DHT22;51131;52.298;13.686;2022-12-17T01:19:22;14.90;39.70
64705;DHT22;51131;52.298;13.686;2022-12-17T01:22:07;15.20;40.30
64705;DHT22;51131;52.298;13.686;2022-12-17T01:24:52;14.90;39.50
64705;DHT22;51131;52.298;13.686;2022-12-17T01:27:37;14.90;38.70
64705;DHT22;51131;52.298;13.686;2022-12-17T01:30:22;14.90;39.40
64705;DHT22;51131;52.298;13.686;2022-12-17T01:33:07;14.90;40.50
64705;DHT22;51131;52.298;13.686;2022-12-17T01:35:54;14.90;39.50
64705;DHT22;51131;52.298;13.686;2022-12-17T01:38:39;14.90;38.90
64705;DHT22;51131;52.298;13.686;2022-12-17T01:41:24;14.90;39.40
64705;DHT22;51131;52.298;13.686;2022-12-17T01:47:14;14.90;39.90
64705;DHT22;51131;52.298;13.686;2022-12-17T01:49:59;14.90;39.00
64705;DHT22;51131;52.298;13.686;2022-12-17T01:52:44;14.90;39.30
64705;DHT22;51131;52.298;13.686;2022-12-17T01:55:29;14.90;39.70
64705;DHT22;51131;52.298;13.686;2022-12-17T01:58:14;15.20;40.50
64705;DHT22;51131;52.298;13.686;2022-12-17T02:00:59;14.90;39.70
64705;DHT22;51131;52.298;13.686;2022-12-17T02:03:45;14.90;39.20
64705;DHT22;51131;52.298;13.686;2022-12-17T02:06:30;14.90;39.80
64705;DHT22;51131;52.298;13.686;2022-12-17T02:12:33;15.00;40.10
64705;DHT22;51131;52.298;13.686;2022-12-17T02:15:26;14.90;40.10
64705;DHT22;51131;52.298;13.686;2022-12-17T02:18:15;15.00;41.10
64705;DHT22;51131;52.298;13.686;2022-12-17T02:21:01;14.90;40.70
64705;DHT22;51131;52.298;13.686;2022-12-17T02:26:53;14.90;40.00
64705;DHT22;51131;52.298;13.686;2022-12-17T02:29:39;15.00;40.60
64705;DHT22;51131;52.298;13.686;2022-12-17T02:32:26;15.00;41.10
64705;DHT22;51131;52.298;13.686;2022-12-17T02:35:13;14.90;40.10
64705;DHT22;51131;52.298;13.686;2022-12-17T02:37:58;14.90;39.90
64705;DHT22;51131;52.298;13.686;2022-12-17T02:40:44;14.90;40.50
64705;DHT22;51131;52.298;13.686;2022-12-17T02:43:30;14.90;40.80
64705;DHT22;51131;52.298;13.686;2022-12-17T02:46:17;15.00;39.70
64705;DHT22;51131;52.298;13.686;2022-12-17T02:49:19;14.90;39.90
64705;DHT22;51131;52.298;13.686;2022-12-17T02:52:04;14.80;39.40
64705;DHT22;51131;52.298;13.686;2022-12-17T02:54:49;14.90;39.10
64705;DHT22;51131;52.298;13.686;2022-12-17T02:57:34;15.00;40.30
64705;DHT22;51131;52.298;13.686;2022-12-17T03:00:20;15.00;40.20
64705;DHT22;51131;52.298;13.686;2022-12-17T03:03:05;15.00;40.30
64705;DHT22;51131;52.298;13.686;2022-12-17T03:05:50;15.00;40.20
64705;DHT22;51131;52.298;13.686;2022-12-17T03:08:35;15.10;40.20
64705;DHT22;51131;52.298;13.686;2022-12-17T03:11:20;15.10;40.60
64705;DHT22;51131;52.298;13.686;2022-12-17T03:14:06;15.20;40.50
64705;DHT22;51131;52.298;13.686;2022-12-17T03:16:51;15.20;40.60
64705;DHT22;51131;52.298;13.686;2022-12-17T03:19:36;15.20;40.50
64705;DHT22;51131;52.298;13.686;2022-12-17T03:22:21;15.20;40.80
64705;DHT22;51131;52.298;13.686;2022-12-17T03:25:07;15.20;40.70
64705;DHT22;51131;52.298;13.686;2022-12-17T03:27:52;15.20;40.90
64705;DHT22;51131;52.298;13.686;2022-12-17T03:30:37;15.10;40.50
64705;DHT22;51131;52.298;13.686;2022-12-17T03:33:22;15.20;41.20
64705;DHT22;51131;52.298;13.686;2022-12-17T03:36:08;15.20;40.80
64705;DHT22;51131;52.298;13.686;2022-12-17T03:38:53;15.20;41.20
64705;DHT22;51131;52.298;13.686;2022-12-17T03:41:38;15.10;41.20
64705;DHT22;51131;52.298;13.686;2022-12-17T03:44:23;15.10;41.10
64705;DHT22;51131;52.298;13.686;2022-12-17T03:47:08;15.20;41.00
64705;DHT22;51131;52.298;13.686;2022-12-17T03:49:53;15.10;41.00
64705;DHT22;51131;52.298;13.686;2022-12-17T03:52:38;15.20;41.10
64705;DHT22;51131;52.298;13.686;2022-12-17T03:55:23;15.10;41.10
64705;DHT22;51131;52.298;13.686;2022-12-17T03:58:08;15.10;41.10
64705;DHT22;51131;52.298;13.686;2022-12-17T04:00:53;15.10;40.80
64705;DHT22;51131;52.298;13.686;2022-12-17T04:03:39;15.10;40.60
64705;DHT22;51131;52.298;13.686;2022-12-17T04:06:24;15.10;40.90
64705;DHT22;51131;52.298;13.686;2022-12-17T04:09:09;15.10;41.20
64705;DHT22;51131;52.298;13.686;2022-12-17T04:11:54;15.10;41.00
64705;DHT22;51131;52.298;13.686;2022-12-17T04:14:40;15.10;40.90
64705;DHT22;51131;52.298;13.686;2022-12-17T04:17:25;15.10;41.20
64705;DHT22;51131;52.298;13.686;2022-12-17T04:20:10;15.10;41.20
64705;DHT22;51131;52.298;13.686;2022-12-17T04:23:15;15.10;40.60
64705;DHT22;51131;52.298;13.686;2022-12-17T04:26:01;15.10;40.90
64705;DHT22;51131;52.298;13.686;2022-12-17T04:29:06;15.10;41.00
64705;DHT22;51131;52.298;13.686;2022-12-17T04:31:51;15.10;41.60
64705;DHT22;51131;52.298;13.686;2022-12-17T04:34:37;15.10;41.50
64705;DHT22;51131;52.298;13.686;2022-12-17T04:37:22;15.10;40.80
64705;DHT22;51131;52.298;13.686;2022-12-17T04:40:07;15.30;41.70
64705;DHT22;51131;52.298;13.686;2022-12-17T04:42:52;15.10;40.80
64705;DHT22;51131;52.298;13.686;2022-12-17T04:45:38;15.20;41.20
64705;DHT22;51131;52.298;13.686;2022-12-17T04:48:23;15.20;41.70
64705;DHT22;51131;52.298;13.686;2022-12-17T04:51:08;15.10;41.10
64705;DHT22;51131;52.298;13.686;2022-12-17T04:53:53;15.20;41.20
64705;DHT22;51131;52.298;13.686;2022-12-17T04:56:38;15.20;41.70
64705;DHT22;51131;52.298;13.686;2022-12-17T04:59:23;15.20;41.50
64705;DHT22;51131;52.298;13.686;2022-12-17T05:02:09;15.20;41.50
64705;DHT22;51131;52.298;13.686;2022-12-17T05:04:54;15.10;41.40
64705;DHT22;51131;52.298;13.686;2022-12-17T05:07:39;15.10;41.70
64705;DHT22;51131;52.298;13.686;2022-12-17T05:10:24;15.30;41.70
64705;DHT22;51131;52.298;13.686;2022-12-17T05:13:09;15.10;41.50
64705;DHT22;51131;52.298;13.686;2022-12-17T05:15:55;15.10;41.50
64705;DHT22;51131;52.298;13.686;2022-12-17T05:18:41;15.10;41.50
64705;DHT22;51131;52.298;13.686;2022-12-17T05:21:26;15.10;41.40
64705;DHT22;51131;52.298;13.686;2022-12-17T05:24:11;15.10;41.40
64705;DHT22;51131;52.298;13.686;2022-12-17T05:26:56;15.20;41.60
64705;DHT22;51131;52.298;13.686;2022-12-17T05:29:41;15.10;41.40
64705;DHT22;51131;52.298;13.686;2022-12-17T05:32:26;15.10;41.40
64705;DHT22;51131;52.298;13.686;2022-12-17T05:35:12;15.10;41.40
64705;DHT22;51131;52.298;13.686;2022-12-17T05:38:03;15.10;41.40
64705;DHT22;51131;52.298;13.686;2022-12-17T05:40:49;15.10;41.40
64705;DHT22;51131;52.298;13.686;2022-12-17T05:43:35;15.10;41.70
64705;DHT22;51131;52.298;13.686;2022-12-17T05:46:20;16.20;42.40
64705;DHT22;51131;52.298;13.686;2022-12-17T05:49:08;15.10;41.50
64705;DHT22;51131;52.298;13.686;2022-12-17T05:51:53;15.10;41.80
64705;DHT22;51131;52.298;13.686;2022-12-17T05:54:38;15.10;41.60
64705;DHT22;51131;52.298;13.686;2022-12-17T05:57:24;15.30;41.80
64705;DHT22;51131;52.298;13.686;2022-12-17T06:00:09;15.10;41.30
64705;DHT22;51131;52.298;13.686;2022-12-17T06:02:56;15.10;41.40
64705;DHT22;51131;52.298;13.686;2022-12-17T06:05:41;15.30;42.10
64705;DHT22;51131;52.298;13.686;2022-12-17T06:08:26;15.10;41.30
64705;DHT22;51131;52.298;13.686;2022-12-17T06:11:12;15.10;41.60
64705;DHT22;51131;52.298;13.686;2022-12-17T06:13:57;15.10;41.60
64705;DHT22;51131;52.298;13.686;2022-12-17T06:16:42;16.00;42.40
64705;DHT22;51131;52.298;13.686;2022-12-17T06:19:27;15.10;41.60
64705;DHT22;51131;52.298;13.686;2022-12-17T06:22:12;15.10;40.80
64705;DHT22;51131;52.298;13.686;2022-12-17T06:24:57;15.10;41.40
64705;DHT22;51131;52.298;13.686;2022-12-17T06:27:43;15.10;41.50
64705;DHT22;51131;52.298;13.686;2022-12-17T06:30:28;15.10;41.20
64705;DHT22;51131;52.298;13.686;2022-12-17T06:33:13;15.10;41.00
64705;DHT22;51131;52.298;13.686;2022-12-17T06:35:59;15.70;42.30
64705;DHT22;51131;52.298;13.686;2022-12-17T06:38:48;15.10;41.80
64705;DHT22;51131;52.298;13.686;2022-12-17T06:41:33;15.10;41.50
64705;DHT22;51131;52.298;13.686;2022-12-17T06:44:27;15.10;41.40
64705;DHT22;51131;52.298;13.686;2022-12-17T06:47:12;15.10;41.40
64705;DHT22;51131;52.298;13.686;2022-12-17T06:49:58;15.40;41.80
64705;DHT22;51131;52.298;13.686;2022-12-17T06:52:43;15.90;42.30
64705;DHT22;51131;52.298;13.686;2022-12-17T06:55:28;15.10;41.60
64705;DHT22;51131;52.298;13.686;2022-12-17T06:58:14;15.80;41.30
64705;DHT22;51131;52.298;13.686;2022-12-17T07:01:00;15.10;41.20
64705;DHT22;51131;52.298;13.686;2022-12-17T07:03:45;15.20;41.30
64705;DHT22;51131;52.298;13.686;2022-12-17T07:06:31;15.10;41.00
64705;DHT22;51131;52.298;13.686;2022-12-17T07:09:16;15.50;41.20
64705;DHT22;51131;52.298;13.686;2022-12-17T07:12:01;15.20;41.10
64705;DHT22;51131;52.298;13.686;2022-12-17T07:14:46;15.20;41.00
64705;DHT22;51131;52.298;13.686;2022-12-17T07:17:32;15.20;41.10
64705;DHT22;51131;52.298;13.686;2022-12-17T07:20:17;15.20;41.10
64705;DHT22;51131;52.298;13.686;2022-12-17T07:23:03;15.30;41.20
64705;DHT22;51131;52.298;13.686;2022-12-17T07:25:48;15.40;41.50
64705;DHT22;51131;52.298;13.686;2022-12-17T07:28:50;15.30;42.00
64705;DHT22;51131;52.298;13.686;2022-12-17T07:31:35;15.30;41.40
64705;DHT22;51131;52.298;13.686;2022-12-17T07:34:20;15.30;41.30
64705;DHT22;51131;52.298;13.686;2022-12-17T07:37:05;15.50;41.60
64705;DHT22;51131;52.298;13.686;2022-12-17T07:39:50;15.40;41.60
64705;DHT22;51131;52.298;13.686;2022-12-17T07:42:37;15.30;41.50
64705;DHT22;51131;52.298;13.686;2022-12-17T07:45:22;16.00;42.10
64705;DHT22;51131;52.298;13.686;2022-12-17T07:48:08;15.30;41.60
64705;DHT22;51131;52.298;13.686;2022-12-17T07:51:01;15.30;41.50
64705;DHT22;51131;52.298;13.686;2022-12-17T07:53:47;15.70;42.10
64705;DHT22;51131;52.298;13.686;2022-12-17T07:56:32;15.30;41.50
64705;DHT22;51131;52.298;13.686;2022-12-17T07:59:17;16.20;42.40
64705;DHT22;51131;52.298;13.686;2022-12-17T08:02:03;15.30;41.70
64705;DHT22;51131;52.298;13.686;2022-12-17T08:04:48;15.40;41.60
64705;DHT22;51131;52.298;13.686;2022-12-17T08:07:33;16.00;42.30
64705;DHT22;51131;52.298;13.686;2022-12-17T08:10:21;15.40;41.70
64705;DHT22;51131;52.298;13.686;2022-12-17T08:13:07;15.40;41.80
64705;DHT22;51131;52.298;13.686;2022-12-17T08:15:53;15.40;41.90
64705;DHT22;51131;52.298;13.686;2022-12-17T08:18:38;15.40;41.80
64705;DHT22;51131;52.298;13.686;2022-12-17T08:21:23;15.60;42.00
64705;DHT22;51131;52.298;13.686;2022-12-17T08:24:08;15.40;41.70
64705;DHT22;51131;52.298;13.686;2022-12-17T08:26:53;15.40;41.70
64705;DHT22;51131;52.298;13.686;2022-12-17T08:29:38;15.40;41.90
64705;DHT22;51131;52.298;13.686;2022-12-17T08:32:24;15.40;41.70
64705;DHT22;51131;52.298;13.686;2022-12-17T08:35:09;15.40;41.70
64705;DHT22;51131;52.298;13.686;2022-12-17T08:38:01;16.30;42.50
64705;DHT22;51131;52.298;13.686;2022-12-17T08:40:46;15.50;41.80
64705;DHT22;51131;52.298;13.686;2022-12-17T08:43:32;15.60;42.00
64705;DHT22;51131;52.298;13.686;2022-12-17T08:46:17;15.60;41.80
64705;DHT22;51131;52.298;13.686;2022-12-17T08:49:02;15.80;41.90
64705;DHT22;51131;52.298;13.686;2022-12-17T08:51:47;16.00;41.90
64705;DHT22;51131;52.298;13.686;2022-12-17T08:54:33;15.60;41.60
64705;DHT22;51131;52.298;13.686;2022-12-17T08:57:20;16.50;42.50
64705;DHT22;51131;52.298;13.686;2022-12-17T09:00:05;15.60;41.60
64705;DHT22;51131;52.298;13.686;2022-12-17T09:02:55;15.60;41.70
64705;DHT22;51131;52.298;13.686;2022-12-17T09:05:40;16.10;42.00
64705;DHT22;51131;52.298;13.686;2022-12-17T09:08:25;16.10;42.10
64705;DHT22;51131;52.298;13.686;2022-12-17T09:11:10;15.60;41.80
64705;DHT22;51131;52.298;13.686;2022-12-17T09:13:55;15.80;42.00
64705;DHT22;51131;52.298;13.686;2022-12-17T09:16:41;15.60;41.70
64705;DHT22;51131;52.298;13.686;2022-12-17T09:19:26;16.40;42.40
64705;DHT22;51131;52.298;13.686;2022-12-17T09:22:11;15.60;41.80
64705;DHT22;51131;52.298;13.686;2022-12-17T09:24:57;15.60;42.00
64705;DHT22;51131;52.298;13.686;2022-12-17T09:27:42;15.60;42.00
64705;DHT22;51131;52.298;13.686;2022-12-17T09:30:27;15.60;42.00
64705;DHT22;51131;52.298;13.686;2022-12-17T09:33:13;15.60;42.00
64705;DHT22;51131;52.298;13.686;2022-12-17T09:36:01;16.10;42.40
64705;DHT22;51131;52.298;13.686;2022-12-17T09:38:47;15.90;42.00
64705;DHT22;51131;52.298;13.686;2022-12-17T09:41:47;16.00;42.10
64705;DHT22;51131;52.298;13.686;2022-12-17T09:47:27;15.90;42.10
64705;DHT22;51131;52.298;13.686;2022-12-17T09:50:13;15.60;41.80
64705;DHT22;51131;52.298;13.686;2022-12-17T09:53:00;15.70;42.20
64705;DHT22;51131;52.298;13.686;2022-12-17T09:55:47;15.60;42.00
64705;DHT22;51131;52.298;13.686;2022-12-17T09:58:34;15.60;42.00
64705;DHT22;51131;52.298;13.686;2022-12-17T10:01:21;15.60;42.00
64705;DHT22;51131;52.298;13.686;2022-12-17T10:04:50;15.60;42.00
64705;DHT22;51131;52.298;13.686;2022-12-17T10:07:17;15.60;42.00
64705;DHT22;51131;52.298;13.686;2022-12-17T10:10:14;15.60;41.80
64705;DHT22;51131;52.298;13.686;2022-12-17T10:13:00;15.60;41.80
64705;DHT22;51131;52.298;13.686;2022-12-17T10:15:45;16.50;42.70
64705;DHT22;51131;52.298;13.686;2022-12-17T10:18:30;15.60;42.00
64705;DHT22;51131;52.298;13.686;2022-12-17T10:21:16;16.50;42.80
64705;DHT22;51131;52.298;13.686;2022-12-17T10:24:08;16.50;42.90
64705;DHT22;51131;52.298;13.686;2022-12-17T10:26:53;15.60;42.00
64705;DHT22;51131;52.298;13.686;2022-12-17T10:29:39;15.60;42.10
64705;DHT22;51131;52.298;13.686;2022-12-17T10:32:25;15.60;42.10
64705;DHT22;51131;52.298;13.686;2022-12-17T10:35:21;15.60;41.90
64705;DHT22;51131;52.298;13.686;2022-12-17T10:38:11;15.60;42.40
64705;DHT22;51131;52.298;13.686;2022-12-17T10:40:57;15.60;42.20
64705;DHT22;51131;52.298;13.686;2022-12-17T10:43:42;15.60;42.20
64705;DHT22;51131;52.298;13.686;2022-12-17T10:46:28;15.90;42.30
64705;DHT22;51131;52.298;13.686;2022-12-17T10:52:00;15.60;42.30
64705;DHT22;51131;52.298;13.686;2022-12-17T10:58:01;15.50;42.00
64705;DHT22;51131;52.298;13.686;2022-12-17T11:00:47;15.60;42.10
64705;DHT22;51131;52.298;13.686;2022-12-17T11:03:52;16.40;42.80
64705;DHT22;51131;52.298;13.686;2022-12-17T11:06:45;15.60;42.20
64705;DHT22;51131;52.298;13.686;2022-12-17T11:09:50;15.60;42.20
64705;DHT22;51131;52.298;13.686;2022-12-17T11:12:37;15.60;42.10
64705;DHT22;51131;52.298;13.686;2022-12-17T11:15:26;15.60;42.00
64705;DHT22;51131;52.298;13.686;2022-12-17T11:18:17;15.80;42.10
64705;DHT22;51131;52.298;13.686;2022-12-17T11:21:09;15.60;42.40
64705;DHT22;51131;52.298;13.686;2022-12-17T11:23:56;16.70;43.20
64705;DHT22;51131;52.298;13.686;2022-12-17T11:26:49;16.70;43.20
64705;DHT22;51131;52.298;13.686;2022-12-17T11:29:35;16.40;42.90
64705;DHT22;51131;52.298;13.686;2022-12-17T11:35:19;15.60;42.40
64705;DHT22;51131;52.298;13.686;2022-12-17T11:38:11;15.60;42.20
64705;DHT22;51131;52.298;13.686;2022-12-17T11:44:10;15.60;42.40
64705;DHT22;51131;52.298;13.686;2022-12-17T11:47:15;15.60;42.10
64705;DHT22;51131;52.298;13.686;2022-12-17T11:50:17;15.60;42.20
64705;DHT22;51131;52.298;13.686;2022-12-17T11:53:32;15.60;42.30
64705;DHT22;51131;52.298;13.686;2022-12-17T11:58:57;15.60;42.30
64705;DHT22;51131;52.298;13.686;2022-12-17T12:01:58;15.60;42.30
64705;DHT22;51131;52.298;13.686;2022-12-17T12:05:00;15.60;42.80
64705;DHT22;51131;52.298;13.686;2022-12-17T12:10:51;15.60;42.20
64705;DHT22;51131;52.298;13.686;2022-12-17T12:16:57;15.60;42.10
64705;DHT22;51131;52.298;13.686;2022-12-17T12:22:31;15.60;42.20
64705;DHT22;51131;52.298;13.686;2022-12-17T12:33:54;15.50;42.20
64705;DHT22;51131;52.298;13.686;2022-12-17T12:36:42;15.60;42.20
64705;DHT22;51131;52.298;13.686;2022-12-17T12:39:34;15.60;42.10
64705;DHT22;51131;52.298;13.686;2022-12-17T12:51:05;15.60;42.40
64705;DHT22;51131;52.298;13.686;2022-12-17T12:54:19;15.60;42.20
64705;DHT22;51131;52.298;13.686;2022-12-17T12:57:22;15.60;42.20
64705;DHT22;51131;52.298;13.686;2022-12-17T13:03:15;15.60;42.20
64705;DHT22;51131;52.298;13.686;2022-12-17T13:06:05;15.60;42.20
64705;DHT22;51131;52.298;13.686;2022-12-17T13:08:32;15.60;42.10
64705;DHT22;51131;52.298;13.686;2022-12-17T13:11:08;15.60;42.10
64705;DHT22;51131;52.298;13.686;2022-12-17T13:13:35;15.60;42.30
64705;DHT22;51131;52.298;13.686;2022-12-17T13:18:59;15.60;42.10
64705;DHT22;51131;52.298;13.686;2022-12-17T13:21:26;15.60;42.40
64705;DHT22;51131;52.298;13.686;2022-12-17T13:23:55;15.60;42.00
64705;DHT22;51131;52.298;13.686;2022-12-17T13:26:29;15.60;42.30
64705;DHT22;51131;52.298;13.686;2022-12-17T13:29:01;15.60;42.10
64705;DHT22;51131;52.298;13.686;2022-12-17T13:31:39;15.60;42.20
64705;DHT22;51131;52.298;13.686;2022-12-17T13:35:10;15.60;42.20
64705;DHT22;51131;52.298;13.686;2022-12-17T13:37:06;15.70;42.20
64705;DHT22;51131;52.298;13.686;2022-12-17T13:39:44;16.40;42.70
64705;DHT22;51131;52.298;13.686;2022-12-17T13:44:49;15.80;41.90
64705;DHT22;51131;52.298;13.686;2022-12-17T13:47:34;15.80;41.70
64705;DHT22;51131;52.298;13.686;2022-12-17T13:50:13;15.80;41.80
64705;DHT22;51131;52.298;13.686;2022-12-17T13:53:10;15.80;41.70
64705;DHT22;51131;52.298;13.686;2022-12-17T13:55:38;15.80;41.80
64705;DHT22;51131;52.298;13.686;2022-12-17T13:58:17;15.80;41.80
64705;DHT22;51131;52.298;13.686;2022-12-17T14:00:45;15.80;41.80
64705;DHT22;51131;52.298;13.686;2022-12-17T14:03:16;15.80;41.90
64705;DHT22;51131;52.298;13.686;2022-12-17T14:06:06;15.70;42.00
64705;DHT22;51131;52.298;13.686;2022-12-17T14:08:34;15.70;41.90
64705;DHT22;51131;52.298;13.686;2022-12-17T14:11:01;15.80;42.30
64705;DHT22;51131;52.298;13.686;2022-12-17T14:13:47;15.60;41.80
64705;DHT22;51131;52.298;13.686;2022-12-17T14:16:15;15.70;41.90
64705;DHT22;51131;52.298;13.686;2022-12-17T14:18:43;15.70;42.00
64705;DHT22;51131;52.298;13.686;2022-12-17T14:21:10;15.70;41.70
64705;DHT22;51131;52.298;13.686;2022-12-17T14:23:37;15.70;42.60
64705;DHT22;51131;52.298;13.686;2022-12-17T14:26:08;15.70;41.80
64705;DHT22;51131;52.298;13.686;2022-12-17T14:28:36;15.70;42.00
64705;DHT22;51131;52.298;13.686;2022-12-17T14:31:14;15.70;42.00
64705;DHT22;51131;52.298;13.686;2022-12-17T14:36:26;15.70;42.10
64705;DHT22;51131;52.298;13.686;2022-12-17T14:41:23;15.70;41.80
64705;DHT22;51131;52.298;13.686;2022-12-17T14:44:18;15.70;42.00
64705;DHT22;51131;52.298;13.686;2022-12-17T14:46:47;15.70;41.80
64705;DHT22;51131;52.298;13.686;2022-12-17T14:49:15;15.70;42.00
64705;DHT22;51131;52.298;13.686;2022-12-17T14:51:42;15.60;42.00
64705;DHT22;51131;52.298;13.686;2022-12-17T14:56:39;15.70;41.80
64705;DHT22;51131;52.298;13.686;2022-12-17T14:59:22;15.70;41.90
64705;DHT22;51131;52.298;13.686;2022-12-17T15:01:50;15.80;41.60
64705;DHT22;51131;52.298;13.686;2022-12-17T15:04:21;15.80;41.90
64705;DHT22;51131;52.298;13.686;2022-12-17T15:06:48;15.80;41.90
64705;DHT22;51131;52.298;13.686;2022-12-17T15:09:16;16.10;42.00
64705;DHT22;51131;52.298;13.686;2022-12-17T15:11:42;15.90;41.50
64705;DHT22;51131;52.298;13.686;2022-12-17T15:14:09;15.90;41.40
64705;DHT22;51131;52.298;13.686;2022-12-17T15:16:36;16.00;41.50
64705;DHT22;51131;52.298;13.686;2022-12-17T15:19:03;15.90;41.50
64705;DHT22;51131;52.298;13.686;2022-12-17T15:21:30;15.90;41.70
64705;DHT22;51131;52.298;13.686;2022-12-17T15:24:00;15.90;41.70
64705;DHT22;51131;52.298;13.686;2022-12-17T15:26:26;15.80;41.50
64705;DHT22;51131;52.298;13.686;2022-12-17T15:28:53;15.80;41.70
64705;DHT22;51131;52.298;13.686;2022-12-17T15:31:19;15.80;41.60
64705;DHT22;51131;52.298;13.686;2022-12-17T15:33:52;15.80;41.70
64705;DHT22;51131;52.298;13.686;2022-12-17T15:36:18;15.80;41.70
64705;DHT22;51131;52.298;13.686;2022-12-17T15:38:45;15.80;41.50
64705;DHT22;51131;52.298;13.686;2022-12-17T15:41:12;15.80;41.70
64705;DHT22;51131;52.298;13.686;2022-12-17T15:43:57;15.70;41.60
64705;DHT22;51131;52.298;13.686;2022-12-17T15:46:24;15.80;42.30
64705;DHT22;51131;52.298;13.686;2022-12-17T15:48:50;15.80;42.00
64705;DHT22;51131;52.298;13.686;2022-12-17T15:51:17;15.70;41.60
64705;DHT22;51131;52.298;13.686;2022-12-17T15:53:46;15.70;41.80
64705;DHT22;51131;52.298;13.686;2022-12-17T15:56:14;15.70;41.80
64705;DHT22;51131;52.298;13.686;2022-12-17T15:58:42;15.70;41.50
64705;DHT22;51131;52.298;13.686;2022-12-17T16:01:09;15.70;41.60
64705;DHT22;51131;52.298;13.686;2022-12-17T16:03:36;15.70;41.70
64705;DHT22;51131;52.298;13.686;2022-12-17T16:06:02;15.70;41.70
64705;DHT22;51131;52.298;13.686;2022-12-17T16:08:29;15.70;41.80
64705;DHT22;51131;52.298;13.686;2022-12-17T16:10:58;15.70;41.90
64705;DHT22;51131;52.298;13.686;2022-12-17T16:13:24;15.70;41.50
64705;DHT22;51131;52.298;13.686;2022-12-17T16:15:55;15.70;41.70
64705;DHT22;51131;52.298;13.686;2022-12-17T16:18:29;15.70;41.60
64705;DHT22;51131;52.298;13.686;2022-12-17T16:21:02;15.60;41.50
64705;DHT22;51131;52.298;13.686;2022-12-17T16:23:29;15.60;41.80
64705;DHT22;51131;52.298;13.686;2022-12-17T16:25:56;15.60;41.60
64705;DHT22;51131;52.298;13.686;2022-12-17T16:28:24;15.70;41.40
64705;DHT22;51131;52.298;13.686;2022-12-17T16:30:58;15.60;41.30
64705;DHT22;51131;52.298;13.686;2022-12-17T16:33:25;15.70;41.40
64705;DHT22;51131;52.298;13.686;2022-12-17T16:35:59;15.60;41.70
64705;DHT22;51131;52.298;13.686;2022-12-17T16:38:26;15.60;41.60
64705;DHT22;51131;52.298;13.686;2022-12-17T16:40:56;15.70;41.40
64705;DHT22;51131;52.298;13.686;2022-12-17T16:43:24;15.70;41.20
64705;DHT22;51131;52.298;13.686;2022-12-17T16:45:51;15.60;41.90
64705;DHT22;51131;52.298;13.686;2022-12-17T16:48:19;15.60;41.20
64705;DHT22;51131;52.298;13.686;2022-12-17T16:50:46;15.60;41.20
64705;DHT22;51131;52.298;13.686;2022-12-17T16:53:12;15.60;40.80
64705;DHT22;51131;52.298;13.686;2022-12-17T16:55:39;15.60;40.60
64705;DHT22;51131;52.298;13.686;2022-12-17T16:58:06;15.60;42.00
64705;DHT22;51131;52.298;13.686;2022-12-17T17:00:33;15.60;41.60
64705;DHT22;51131;52.298;13.686;2022-12-17T17:03:00;15.60;41.30
64705;DHT22;51131;52.298;13.686;2022-12-17T17:05:29;15.60;41.40
64705;DHT22;51131;52.298;13.686;2022-12-17T17:07:56;15.60;41.10
64705;DHT22;51131;52.298;13.686;2022-12-17T17:10:23;15.60;40.90
64705;DHT22;51131;52.298;13.686;2022-12-17T17:12:50;15.60;41.30
64705;DHT22;51131;52.298;13.686;2022-12-17T17:15:17;15.60;40.80
64705;DHT22;51131;52.298;13.686;2022-12-17T17:17:44;15.60;40.90
64705;DHT22;51131;52.298;13.686;2022-12-17T17:20:21;15.60;41.30
64705;DHT22;51131;52.298;13.686;2022-12-17T17:22:48;15.60;40.80
64705;DHT22;51131;52.298;13.686;2022-12-17T17:25:14;15.60;40.80
64705;DHT22;51131;52.298;13.686;2022-12-17T17:27:41;15.60;40.50
64705;DHT22;51131;52.298;13.686;2022-12-17T17:30:07;15.60;40.20
64705;DHT22;51131;52.298;13.686;2022-12-17T17:32:34;15.60;40.30
64705;DHT22;51131;52.298;13.686;2022-12-17T17:35:01;15.80;40.60
64705;DHT22;51131;52.298;13.686;2022-12-17T17:37:28;16.40;40.90
64705;DHT22;51131;52.298;13.686;2022-12-17T17:39:54;15.60;40.80
64705;DHT22;51131;52.298;13.686;2022-12-17T17:42:21;15.60;40.70
64705;DHT22;51131;52.298;13.686;2022-12-17T17:44:47;15.60;40.70
64705;DHT22;51131;52.298;13.686;2022-12-17T17:47:14;15.60;40.20
64705;DHT22;51131;52.298;13.686;2022-12-17T17:49:41;15.60;40.30
64705;DHT22;51131;52.298;13.686;2022-12-17T17:52:08;15.60;40.40
64705;DHT22;51131;52.298;13.686;2022-12-17T17:54:36;15.70;39.90
64705;DHT22;51131;52.298;13.686;2022-12-17T17:57:04;15.70;41.20